createdAt,value
2017-12-31T00:01:43.454Z,12.50
2017-12-31T00:04:11.135Z,12.40
2017-12-31T00:06:38.859Z,12.40
2017-12-31T00:09:06.514Z,12.40
2017-12-31T00:11:34.299Z,12.40
2017-12-31T00:14:02.805Z,12.40
2017-12-31T00:16:30.411Z,12.40
2017-12-31T00:18:58.191Z,12.40
2017-12-31T00:21:25.969Z,12.40
2017-12-31T00:23:54.514Z,12.40
2017-12-31T00:26:22.201Z,12.40
2017-12-31T00:28:49.990Z,12.40
2017-12-31T00:31:18.467Z,12.40
2017-12-31T00:33:47.020Z,12.30
2017-12-31T00:36:14.817Z,12.30
2017-12-31T00:38:44.231Z,12.40
2017-12-31T00:41:11.971Z,12.30
2017-12-31T00:43:40.459Z,12.30
2017-12-31T00:46:08.910Z,12.30
2017-12-31T00:48:36.808Z,12.30
2017-12-31T00:51:05.364Z,12.30
2017-12-31T00:53:33.066Z,12.30
2017-12-31T00:56:01.741Z,12.30
2017-12-31T00:58:29.701Z,12.30
2017-12-31T01:00:57.481Z,12.30
2017-12-31T01:03:25.198Z,12.30
2017-12-31T01:05:53.037Z,12.30
2017-12-31T01:08:20.673Z,12.30
2017-12-31T01:10:48.573Z,12.30
2017-12-31T01:13:16.291Z,12.30
2017-12-31T01:15:45.473Z,12.20
2017-12-31T01:18:13.581Z,12.20
2017-12-31T01:20:41.334Z,12.20
2017-12-31T01:23:09.846Z,12.20
2017-12-31T01:25:37.662Z,12.20
2017-12-31T01:28:05.352Z,12.20
2017-12-31T01:30:33.922Z,12.20
2017-12-31T01:33:01.843Z,12.20
2017-12-31T01:35:29.652Z,12.20
2017-12-31T01:37:57.452Z,12.20
2017-12-31T01:40:25.159Z,12.20
2017-12-31T01:45:25.866Z,12.20
2017-12-31T01:47:54.474Z,12.20
2017-12-31T01:50:22.236Z,12.20
2017-12-31T01:52:49.900Z,12.20
2017-12-31T01:55:17.569Z,12.20
2017-12-31T01:57:45.512Z,12.20
2017-12-31T02:00:13.725Z,12.20
2017-12-31T02:02:41.800Z,12.20
2017-12-31T02:05:09.485Z,12.20
2017-12-31T02:07:37.083Z,12.20
2017-12-31T02:10:05.684Z,12.20
2017-12-31T02:12:33.311Z,12.20
2017-12-31T02:15:01.241Z,12.20
2017-12-31T02:17:28.903Z,12.20
2017-12-31T02:19:57.383Z,12.20
2017-12-31T02:22:25.215Z,12.20
2017-12-31T02:24:52.866Z,12.20
2017-12-31T02:27:20.625Z,12.20
2017-12-31T02:29:49.158Z,12.20
2017-12-31T02:32:16.928Z,12.20
2017-12-31T02:34:44.659Z,12.20
2017-12-31T02:37:12.447Z,12.20
2017-12-31T02:39:40.421Z,12.10
2017-12-31T02:42:08.230Z,12.10
2017-12-31T02:44:36.032Z,12.10
2017-12-31T02:47:03.998Z,12.10
2017-12-31T02:49:31.743Z,12.10
2017-12-31T02:51:59.730Z,12.20
2017-12-31T02:54:27.750Z,12.20
2017-12-31T02:56:56.152Z,12.10
2017-12-31T02:59:24.086Z,12.10
2017-12-31T03:01:51.720Z,12.10
2017-12-31T03:04:19.668Z,12.10
2017-12-31T03:06:48.311Z,12.10
2017-12-31T03:09:16.474Z,12.10
2017-12-31T03:11:44.218Z,12.10
2017-12-31T03:14:11.912Z,12.10
2017-12-31T03:16:39.785Z,12.10
2017-12-31T03:19:07.422Z,12.00
2017-12-31T03:21:35.110Z,12.10
2017-12-31T03:24:03.366Z,12.10
2017-12-31T03:26:31.076Z,12.10
2017-12-31T03:28:59.444Z,12.10
2017-12-31T03:31:27.285Z,12.10
2017-12-31T03:33:55.038Z,12.10
2017-12-31T03:36:22.950Z,12.10
2017-12-31T03:38:50.765Z,12.00
2017-12-31T03:41:18.411Z,12.00
2017-12-31T03:43:47.745Z,12.00
2017-12-31T03:46:15.459Z,12.00
2017-12-31T03:48:43.805Z,12.00
2017-12-31T03:51:11.457Z,12.00
2017-12-31T03:53:40.001Z,12.00
2017-12-31T03:56:07.925Z,12.00
2017-12-31T03:58:35.506Z,12.00
2017-12-31T04:01:04.548Z,12.00
2017-12-31T04:03:32.171Z,11.90
2017-12-31T04:06:00.659Z,11.90
2017-12-31T04:08:29.190Z,11.90
2017-12-31T04:10:56.884Z,11.90
2017-12-31T04:13:24.560Z,11.90
2017-12-31T04:15:52.142Z,11.90
2017-12-31T04:18:19.875Z,11.90
2017-12-31T04:20:47.615Z,11.90
2017-12-31T04:23:15.447Z,11.90
2017-12-31T04:25:43.119Z,12.00
2017-12-31T04:28:10.754Z,12.00
2017-12-31T04:30:39.207Z,12.00
2017-12-31T04:33:06.853Z,12.00
2017-12-31T04:35:34.564Z,12.00
2017-12-31T04:38:02.250Z,12.00
2017-12-31T04:40:29.933Z,12.00
2017-12-31T04:42:57.701Z,12.00
2017-12-31T04:45:25.423Z,12.00
2017-12-31T04:47:53.059Z,12.00
2017-12-31T04:50:20.855Z,12.10
2017-12-31T04:52:48.565Z,12.10
2017-12-31T04:55:16.013Z,12.10
2017-12-31T04:57:43.469Z,12.20
2017-12-31T05:00:12.008Z,12.20
2017-12-31T05:02:39.683Z,12.20
2017-12-31T05:05:07.631Z,12.20
2017-12-31T05:07:35.294Z,12.20
2017-12-31T05:10:03.121Z,12.30
2017-12-31T05:12:30.800Z,12.30
2017-12-31T05:14:58.686Z,12.30
2017-12-31T05:17:26.519Z,12.40
2017-12-31T05:19:54.196Z,12.40
2017-12-31T05:22:21.847Z,12.40
2017-12-31T05:24:50.667Z,12.40
2017-12-31T05:27:18.603Z,12.40
2017-12-31T05:29:46.263Z,12.40
2017-12-31T05:32:14.878Z,12.40
2017-12-31T05:34:42.852Z,12.40
2017-12-31T05:37:10.545Z,12.30
2017-12-31T05:39:38.400Z,12.40
2017-12-31T05:42:07.120Z,12.40
2017-12-31T05:44:34.909Z,12.40
2017-12-31T05:47:02.635Z,12.30
2017-12-31T05:49:30.193Z,12.30
2017-12-31T05:51:57.832Z,12.30
2017-12-31T05:54:25.736Z,12.30
2017-12-31T05:56:53.848Z,12.30
2017-12-31T05:59:21.592Z,12.40
2017-12-31T06:01:49.298Z,12.40
2017-12-31T06:04:17.142Z,12.40
2017-12-31T06:06:44.935Z,12.40
2017-12-31T06:09:13.312Z,12.40
2017-12-31T06:11:41.017Z,12.40
2017-12-31T06:14:08.744Z,12.40
2017-12-31T06:16:37.331Z,12.40
2017-12-31T06:19:05.992Z,12.40
2017-12-31T06:21:33.796Z,12.40
2017-12-31T06:24:01.509Z,12.40
2017-12-31T06:26:29.373Z,12.40
2017-12-31T06:28:57.047Z,12.50
2017-12-31T06:31:24.788Z,12.50
2017-12-31T06:33:52.388Z,12.50
2017-12-31T06:36:20.369Z,12.60
2017-12-31T06:38:49.793Z,12.70
2017-12-31T06:41:17.469Z,12.70
2017-12-31T06:43:45.156Z,12.70
2017-12-31T06:46:12.823Z,12.70
2017-12-31T06:48:40.781Z,12.70
2017-12-31T06:51:08.546Z,12.80
2017-12-31T06:53:36.228Z,12.80
2017-12-31T06:56:03.970Z,12.80
2017-12-31T06:58:31.661Z,12.80
2017-12-31T07:00:59.494Z,12.80
2017-12-31T07:03:27.392Z,12.80
2017-12-31T07:05:55.034Z,12.80
2017-12-31T07:08:22.898Z,12.80
2017-12-31T07:10:50.558Z,12.80
2017-12-31T07:13:18.410Z,12.90
2017-12-31T07:15:46.157Z,12.90
2017-12-31T07:18:13.912Z,12.90
2017-12-31T07:20:42.411Z,12.90
2017-12-31T07:23:10.098Z,12.90
2017-12-31T07:25:38.108Z,12.90
2017-12-31T07:28:05.774Z,12.90
2017-12-31T07:30:34.305Z,12.90
2017-12-31T07:33:02.089Z,12.90
2017-12-31T07:35:30.523Z,12.90
2017-12-31T07:37:58.217Z,12.90
2017-12-31T07:40:25.889Z,12.90
2017-12-31T07:42:55.123Z,12.90
2017-12-31T07:45:22.860Z,12.90
2017-12-31T07:47:51.357Z,12.90
2017-12-31T07:50:19.246Z,12.90
2017-12-31T07:52:46.996Z,12.90
2017-12-31T07:55:14.762Z,12.90
2017-12-31T07:57:43.391Z,13.00
2017-12-31T08:00:11.895Z,12.90
2017-12-31T08:02:39.668Z,12.90
2017-12-31T08:05:07.646Z,13.00
2017-12-31T08:07:35.497Z,13.00
2017-12-31T08:10:03.500Z,13.00
2017-12-31T08:12:31.295Z,13.00
2017-12-31T08:14:58.975Z,13.00
2017-12-31T08:17:27.319Z,13.00
2017-12-31T08:19:55.064Z,13.00
2017-12-31T08:22:22.730Z,13.10
2017-12-31T08:24:51.624Z,13.00
2017-12-31T08:27:19.639Z,13.10
2017-12-31T08:29:48.440Z,13.10
2017-12-31T08:32:16.459Z,13.10
2017-12-31T08:34:44.320Z,13.20
2017-12-31T08:37:12.570Z,13.20
2017-12-31T08:39:40.354Z,13.20
2017-12-31T08:42:08.395Z,13.20
2017-12-31T08:44:36.503Z,13.30
2017-12-31T08:47:05.122Z,13.30
2017-12-31T08:49:33.039Z,13.30
2017-12-31T08:52:00.775Z,13.30
2017-12-31T08:54:28.662Z,13.30
2017-12-31T08:56:56.469Z,13.30
2017-12-31T08:59:24.325Z,13.30
2017-12-31T09:01:52.202Z,13.40
2017-12-31T09:04:20.076Z,13.40
2017-12-31T09:06:47.861Z,13.40
2017-12-31T09:09:16.099Z,13.40
2017-12-31T09:11:43.791Z,13.40
2017-12-31T09:14:11.686Z,13.40
2017-12-31T09:16:39.430Z,13.50
2017-12-31T09:19:07.149Z,13.50
2017-12-31T09:21:34.909Z,13.50
2017-12-31T09:24:02.587Z,13.50
2017-12-31T09:26:30.380Z,13.50
2017-12-31T09:28:58.147Z,13.60
2017-12-31T09:31:25.832Z,13.60
2017-12-31T09:33:53.459Z,13.60
2017-12-31T09:36:21.155Z,13.70
2017-12-31T09:38:48.790Z,13.70
2017-12-31T09:41:16.525Z,13.70
2017-12-31T09:43:44.450Z,13.80
2017-12-31T09:46:12.932Z,13.80
2017-12-31T09:48:41.341Z,13.90
2017-12-31T09:51:09.154Z,13.90
2017-12-31T09:53:36.834Z,13.90
2017-12-31T09:56:05.309Z,14.00
2017-12-31T09:58:33.036Z,13.90
2017-12-31T10:01:00.809Z,14.00
2017-12-31T10:03:28.682Z,14.10
2017-12-31T10:05:56.628Z,14.10
2017-12-31T10:08:24.356Z,14.20
2017-12-31T10:10:53.759Z,14.20
2017-12-31T10:13:22.302Z,14.30
2017-12-31T10:15:50.103Z,14.30
2017-12-31T10:18:18.705Z,14.40
2017-12-31T10:20:46.286Z,14.40
2017-12-31T10:23:13.954Z,14.40
2017-12-31T10:25:41.725Z,14.40
2017-12-31T10:28:09.507Z,14.30
2017-12-31T10:30:37.208Z,14.30
2017-12-31T10:33:04.936Z,14.30
2017-12-31T10:35:32.695Z,14.30
2017-12-31T10:38:00.384Z,14.30
2017-12-31T10:40:28.060Z,14.30
2017-12-31T10:42:55.688Z,14.30
2017-12-31T10:45:24.238Z,14.40
2017-12-31T10:47:52.027Z,14.50
2017-12-31T10:50:19.751Z,14.60
2017-12-31T10:52:47.706Z,14.80
2017-12-31T10:55:16.431Z,15.00
2017-12-31T10:57:44.220Z,15.00
2017-12-31T11:00:11.809Z,15.10
2017-12-31T11:02:39.592Z,15.20
2017-12-31T11:05:07.972Z,15.30
2017-12-31T11:07:35.735Z,15.30
2017-12-31T11:10:04.356Z,15.50
2017-12-31T11:12:32.036Z,15.50
2017-12-31T11:14:59.737Z,15.50
2017-12-31T11:17:28.220Z,15.50
2017-12-31T11:19:56.028Z,15.50
2017-12-31T11:22:25.330Z,15.60
2017-12-31T11:24:54.867Z,15.60
2017-12-31T11:27:22.635Z,15.60
2017-12-31T11:29:50.247Z,15.60
2017-12-31T11:32:18.059Z,15.60
2017-12-31T11:34:46.558Z,15.60
2017-12-31T11:37:14.446Z,15.50
2017-12-31T11:39:42.982Z,15.50
2017-12-31T11:42:10.677Z,15.50
2017-12-31T11:44:38.571Z,15.50
2017-12-31T11:47:06.954Z,15.50
2017-12-31T11:49:34.769Z,15.40
2017-12-31T11:52:04.582Z,15.40
2017-12-31T11:54:32.201Z,15.40
2017-12-31T11:56:59.947Z,15.40
2017-12-31T11:59:28.350Z,15.30
2017-12-31T12:01:55.904Z,15.30
2017-12-31T12:04:23.605Z,15.30
2017-12-31T12:06:51.236Z,15.30
2017-12-31T12:09:19.007Z,15.30
2017-12-31T12:11:46.716Z,15.30
2017-12-31T12:14:14.390Z,15.30
2017-12-31T12:16:42.074Z,15.30
2017-12-31T12:19:09.992Z,15.20
2017-12-31T12:21:37.732Z,15.10
2017-12-31T12:24:05.356Z,15.10
2017-12-31T12:26:33.827Z,14.90
2017-12-31T12:29:01.518Z,14.90
2017-12-31T12:31:29.241Z,14.90
2017-12-31T12:33:56.998Z,14.80
2017-12-31T12:36:26.934Z,14.80
2017-12-31T12:38:55.621Z,14.80
2017-12-31T12:41:23.421Z,14.80
2017-12-31T12:43:52.192Z,14.80
2017-12-31T12:46:19.859Z,14.80
2017-12-31T12:48:48.357Z,14.80
2017-12-31T12:51:16.271Z,14.70
2017-12-31T12:53:44.055Z,14.80
2017-12-31T12:56:11.937Z,14.70
2017-12-31T12:58:39.875Z,14.70
2017-12-31T13:01:07.638Z,14.80
2017-12-31T13:03:35.386Z,14.80
2017-12-31T13:06:03.069Z,14.90
2017-12-31T13:08:30.797Z,14.80
2017-12-31T13:10:58.564Z,14.90
2017-12-31T13:13:26.942Z,14.80
2017-12-31T13:15:54.772Z,14.80
2017-12-31T13:18:22.522Z,14.80
2017-12-31T13:20:50.163Z,14.80
2017-12-31T13:23:18.032Z,14.80
2017-12-31T13:25:45.680Z,14.80
2017-12-31T13:28:13.364Z,14.80
2017-12-31T13:30:41.196Z,14.80
2017-12-31T13:33:09.047Z,14.90
2017-12-31T13:35:36.759Z,14.80
2017-12-31T13:38:04.643Z,14.80
2017-12-31T13:40:32.248Z,14.80
2017-12-31T13:42:59.926Z,14.80
2017-12-31T13:45:28.443Z,14.80
2017-12-31T13:47:57.885Z,14.80
2017-12-31T13:50:25.530Z,14.80
2017-12-31T13:52:53.431Z,14.80
2017-12-31T13:55:21.179Z,14.80
2017-12-31T13:57:50.056Z,14.80
2017-12-31T14:00:18.631Z,14.80
2017-12-31T14:02:46.683Z,14.70
2017-12-31T14:05:14.808Z,14.80
2017-12-31T14:07:42.989Z,14.80
2017-12-31T14:10:10.816Z,14.80
2017-12-31T14:12:39.339Z,14.80
2017-12-31T14:15:07.206Z,14.80
2017-12-31T14:17:34.886Z,14.80
2017-12-31T14:20:02.883Z,14.80
2017-12-31T14:22:30.996Z,14.70
2017-12-31T14:24:58.579Z,14.70
2017-12-31T14:27:26.257Z,14.70
2017-12-31T14:29:54.101Z,14.70
2017-12-31T14:32:21.805Z,14.70
2017-12-31T14:34:49.415Z,14.60
2017-12-31T14:37:17.853Z,14.50
2017-12-31T14:39:45.576Z,14.50
2017-12-31T14:42:13.456Z,14.50
2017-12-31T14:44:41.062Z,14.40
2017-12-31T14:47:09.484Z,14.30
2017-12-31T14:49:37.333Z,14.30
2017-12-31T14:52:05.901Z,14.30
2017-12-31T14:54:33.911Z,14.30
2017-12-31T14:57:01.587Z,14.30
2017-12-31T14:59:30.101Z,14.30
2017-12-31T15:01:58.005Z,14.20
2017-12-31T15:04:25.761Z,14.20
2017-12-31T15:06:53.369Z,14.20
2017-12-31T15:09:21.118Z,14.10
2017-12-31T15:11:48.962Z,14.10
2017-12-31T15:14:19.481Z,13.90
2017-12-31T15:16:47.162Z,13.90
2017-12-31T15:19:14.894Z,13.80
2017-12-31T15:21:42.649Z,13.80
2017-12-31T15:24:10.307Z,13.70
2017-12-31T15:26:37.999Z,13.70
2017-12-31T15:29:05.613Z,13.70
2017-12-31T15:31:33.413Z,13.60
2017-12-31T15:34:00.952Z,13.60
2017-12-31T15:36:29.551Z,13.60
2017-12-31T15:38:58.076Z,13.50
2017-12-31T15:41:26.684Z,13.50
2017-12-31T15:43:54.499Z,13.50
2017-12-31T15:46:22.169Z,13.50
2017-12-31T15:48:49.967Z,13.40
2017-12-31T15:51:17.674Z,13.40
2017-12-31T15:53:45.488Z,13.40
2017-12-31T15:56:13.085Z,13.30
2017-12-31T15:58:40.941Z,13.30
2017-12-31T16:01:08.914Z,13.30
2017-12-31T16:03:36.752Z,13.20
2017-12-31T16:06:04.421Z,13.20
2017-12-31T16:08:32.209Z,13.20
2017-12-31T16:11:00.052Z,13.20
2017-12-31T16:13:27.716Z,13.20
2017-12-31T16:15:55.670Z,13.20
2017-12-31T16:18:24.275Z,13.20
2017-12-31T16:20:52.196Z,13.20
2017-12-31T16:23:20.246Z,13.10
2017-12-31T16:25:48.080Z,13.10
2017-12-31T16:28:15.869Z,13.10
2017-12-31T16:30:43.912Z,13.10
2017-12-31T16:33:11.871Z,13.00
2017-12-31T16:35:39.752Z,13.00
2017-12-31T16:38:07.556Z,13.00
2017-12-31T16:40:35.316Z,13.00
2017-12-31T16:43:03.108Z,12.90
2017-12-31T16:45:30.798Z,12.90
2017-12-31T16:47:59.373Z,12.90
2017-12-31T16:50:27.014Z,12.80
2017-12-31T16:52:54.655Z,12.80
2017-12-31T16:55:22.502Z,12.80
2017-12-31T16:57:50.193Z,12.80
2017-12-31T17:00:18.279Z,12.80
2017-12-31T17:02:46.911Z,12.80
2017-12-31T17:05:14.726Z,12.80
2017-12-31T17:07:42.551Z,12.80
2017-12-31T17:10:11.501Z,13.00
2017-12-31T17:12:40.621Z,12.90
2017-12-31T17:15:08.461Z,12.90
2017-12-31T17:17:36.355Z,12.90
2017-12-31T17:20:06.626Z,12.90
2017-12-31T17:22:34.429Z,12.90
2017-12-31T17:25:03.086Z,12.80
2017-12-31T17:27:31.159Z,12.80
2017-12-31T17:29:58.872Z,12.80
2017-12-31T17:32:27.111Z,12.80
2017-12-31T17:34:54.560Z,12.80
2017-12-31T17:37:22.010Z,12.80
2017-12-31T17:39:49.540Z,12.80
2017-12-31T17:42:16.985Z,12.80
2017-12-31T17:44:44.438Z,12.80
2017-12-31T17:47:11.915Z,12.80
2017-12-31T17:49:39.461Z,12.80
2017-12-31T17:52:06.913Z,12.80
2017-12-31T17:54:35.165Z,12.80
2017-12-31T17:57:02.629Z,12.80
2017-12-31T17:59:30.089Z,12.80
2017-12-31T18:01:57.558Z,12.80
2017-12-31T18:04:25.853Z,12.80
2017-12-31T18:06:53.300Z,12.80
2017-12-31T18:09:21.541Z,12.80
2017-12-31T18:11:49.017Z,12.70
2017-12-31T18:14:16.469Z,12.80
2017-12-31T18:16:43.920Z,12.70
2017-12-31T18:19:11.420Z,12.70
2017-12-31T18:21:38.881Z,12.70
2017-12-31T18:24:06.900Z,12.70
2017-12-31T18:26:34.597Z,12.70
2017-12-31T18:29:03.089Z,12.60
2017-12-31T18:31:30.865Z,12.60
2017-12-31T18:33:58.473Z,12.60
2017-12-31T18:36:26.013Z,12.60
2017-12-31T18:38:53.682Z,12.60
2017-12-31T18:41:21.244Z,12.60
2017-12-31T18:43:49.814Z,12.50
2017-12-31T18:46:18.938Z,12.50
2017-12-31T18:48:46.852Z,12.50
2017-12-31T18:51:15.512Z,12.50
2017-12-31T18:53:43.403Z,12.50
2017-12-31T18:56:11.285Z,12.50
2017-12-31T18:58:39.340Z,12.50
2017-12-31T19:01:06.876Z,12.40
2017-12-31T19:03:34.382Z,12.40
2017-12-31T19:06:02.557Z,12.30
2017-12-31T19:08:30.070Z,12.30
2017-12-31T19:10:57.589Z,12.30
2017-12-31T19:13:25.094Z,12.30
2017-12-31T19:15:52.643Z,12.30
2017-12-31T19:18:20.985Z,12.20
2017-12-31T19:20:48.593Z,12.20
2017-12-31T19:23:16.061Z,12.20
2017-12-31T19:25:44.292Z,12.10
2017-12-31T19:28:12.529Z,12.00
2017-12-31T19:30:40.002Z,12.00
2017-12-31T19:33:07.498Z,11.90
2017-12-31T19:35:34.954Z,11.90
2017-12-31T19:38:03.849Z,11.70
2017-12-31T19:40:31.333Z,11.70
2017-12-31T19:42:59.105Z,11.60
2017-12-31T19:45:26.855Z,11.50
2017-12-31T19:47:55.337Z,11.40
2017-12-31T19:50:23.067Z,11.30
2017-12-31T19:52:50.544Z,11.20
2017-12-31T19:55:18.119Z,11.00
2017-12-31T19:57:45.665Z,10.90
2017-12-31T20:00:13.991Z,10.70
2017-12-31T20:02:41.464Z,10.60
2017-12-31T20:05:09.012Z,10.60
2017-12-31T20:07:36.487Z,10.60
2017-12-31T20:10:04.020Z,10.60
2017-12-31T20:12:32.260Z,10.60
2017-12-31T20:14:59.732Z,10.60
2017-12-31T20:17:28.303Z,10.70
2017-12-31T20:19:57.446Z,10.70
2017-12-31T20:22:25.364Z,10.70
2017-12-31T20:24:53.044Z,10.80
2017-12-31T20:27:20.583Z,10.80
2017-12-31T20:29:48.213Z,10.80
2017-12-31T20:32:15.692Z,10.90
2017-12-31T20:34:43.149Z,10.90
2017-12-31T20:37:10.813Z,11.00
2017-12-31T20:39:38.273Z,11.00
2017-12-31T20:42:06.027Z,11.00
2017-12-31T20:44:34.049Z,11.00
2017-12-31T20:47:02.318Z,11.00
2017-12-31T20:49:29.903Z,11.00
2017-12-31T20:51:58.181Z,10.90
2017-12-31T20:54:25.716Z,10.90
2017-12-31T20:56:53.401Z,10.90
2017-12-31T20:59:21.049Z,10.90
2017-12-31T21:01:49.831Z,10.90
2017-12-31T21:04:18.327Z,10.90
2017-12-31T21:06:46.174Z,11.00
2017-12-31T21:09:13.974Z,10.90
2017-12-31T21:11:41.773Z,11.00
2017-12-31T21:14:09.289Z,11.00
2017-12-31T21:16:37.596Z,11.00
2017-12-31T21:19:05.167Z,11.00
2017-12-31T21:21:32.864Z,10.90
2017-12-31T21:24:00.414Z,10.90
2017-12-31T21:26:28.002Z,10.90
2017-12-31T21:28:56.538Z,10.90
2017-12-31T21:31:24.159Z,10.90
2017-12-31T21:33:51.667Z,10.80
2017-12-31T21:36:19.175Z,10.80
2017-12-31T21:38:46.907Z,10.80
2017-12-31T21:41:14.430Z,10.80
2017-12-31T21:43:42.089Z,10.90
2017-12-31T21:46:09.633Z,10.80
2017-12-31T21:48:37.513Z,10.80
2017-12-31T21:51:06.245Z,10.80
2017-12-31T21:53:33.989Z,10.80
2017-12-31T21:56:01.642Z,10.80
2017-12-31T21:58:29.344Z,10.80
2017-12-31T22:00:56.884Z,10.80
2017-12-31T22:03:24.463Z,10.80
2017-12-31T22:05:52.002Z,10.70
2017-12-31T22:08:19.629Z,10.70
2017-12-31T22:10:47.175Z,10.70
2017-12-31T22:13:14.812Z,10.70
2017-12-31T22:15:42.361Z,10.70
2017-12-31T22:18:09.939Z,10.70
2017-12-31T22:20:38.192Z,10.80
2017-12-31T22:23:06.718Z,10.80
2017-12-31T22:25:34.345Z,10.80
2017-12-31T22:28:01.796Z,10.80
2017-12-31T22:30:29.567Z,10.80
2017-12-31T22:32:57.021Z,10.70
2017-12-31T22:35:24.915Z,10.70
2017-12-31T22:37:52.632Z,10.70
2017-12-31T22:40:20.316Z,10.70
2017-12-31T22:42:48.174Z,10.70
2017-12-31T22:45:15.951Z,10.70
2017-12-31T22:47:43.581Z,10.60
2017-12-31T22:50:11.418Z,10.60
2017-12-31T22:52:39.896Z,10.60
2017-12-31T22:55:08.476Z,10.60
2017-12-31T22:57:37.056Z,10.60
2017-12-31T23:00:05.911Z,10.60
2017-12-31T23:02:33.630Z,10.60
2017-12-31T23:05:02.067Z,10.60
2017-12-31T23:07:29.698Z,10.60
2017-12-31T23:09:57.406Z,10.60
2017-12-31T23:12:25.430Z,10.50
2017-12-31T23:14:53.289Z,10.50
2017-12-31T23:17:21.257Z,10.50
2017-12-31T23:19:49.075Z,10.40
2017-12-31T23:22:16.672Z,10.40
2017-12-31T23:24:44.360Z,10.30
2017-12-31T23:27:12.080Z,10.30
2017-12-31T23:29:39.945Z,10.30
2017-12-31T23:32:07.610Z,10.20
2017-12-31T23:34:35.321Z,10.20
2017-12-31T23:37:04.710Z,10.20
2017-12-31T23:39:32.645Z,10.10
2017-12-31T23:42:00.373Z,10.10
2017-12-31T23:44:28.166Z,10.10
2017-12-31T23:46:56.312Z,10.10
2017-12-31T23:49:24.159Z,10.10
2017-12-31T23:51:51.994Z,10.00
2017-12-31T23:54:19.770Z,10.00
2017-12-31T23:56:48.264Z,10.00
2017-12-31T23:59:16.021Z,10.00
